createdAt,value
2019-02-05T00:03:16.456Z,100030.94
2019-02-05T00:08:18.065Z,100018.15
2019-02-05T00:13:19.405Z,100020.87
2019-02-05T00:18:21.993Z,100010.63
2019-02-05T00:23:23.172Z,100003.36
2019-02-05T00:28:24.644Z,100001.66
2019-02-05T00:33:26.012Z,100009.91
2019-02-05T00:38:28.324Z,100016.94
2019-02-05T00:43:30.231Z,100018.78
2019-02-05T00:48:31.716Z,100013.38
2019-02-05T00:53:32.933Z,100014.78
2019-02-05T00:58:34.182Z,100015.95
2019-02-05T01:03:35.443Z,100018.91
2019-02-05T01:08:36.729Z,100019.98
2019-02-05T01:13:37.914Z,100015.48
2019-02-05T01:18:39.074Z,100017.17
2019-02-05T01:23:40.384Z,100004.56
2019-02-05T01:28:41.707Z,99998.48
2019-02-05T01:33:43.190Z,100002.74
2019-02-05T01:38:44.373Z,100001.22
2019-02-05T01:43:49.175Z,100005.20
2019-02-05T01:48:50.288Z,100002.61
2019-02-05T01:53:51.569Z,99998.20
2019-02-05T01:58:52.877Z,99984.30
2019-02-05T02:03:54.241Z,99996.52
2019-02-05T02:08:55.398Z,99986.91
2019-02-05T02:13:56.740Z,99973.73
2019-02-05T02:18:57.972Z,99973.53
2019-02-05T02:23:59.134Z,99965.89
2019-02-05T02:29:00.431Z,99962.22
2019-02-05T02:34:01.622Z,99961.23
2019-02-05T02:39:04.605Z,99959.48
2019-02-05T02:44:06.289Z,99966.27
2019-02-05T02:49:07.440Z,99962.58
2019-02-05T02:54:09.101Z,99948.76
2019-02-05T02:59:10.363Z,99944.45
2019-02-05T03:04:11.892Z,99945.30
2019-02-05T03:09:13.444Z,99928.89
2019-02-05T03:14:14.875Z,99916.13
2019-02-05T03:19:16.051Z,99922.88
2019-02-05T03:24:17.620Z,99929.83
2019-02-05T03:29:18.771Z,99929.36
2019-02-05T03:34:20.136Z,99930.88
2019-02-05T03:39:21.713Z,99941.67
2019-02-05T03:44:23.090Z,99946.78
2019-02-05T03:49:24.452Z,99950.33
2019-02-05T03:54:32.448Z,99959.67
2019-02-05T03:59:49.433Z,99952.70
2019-02-05T04:05:20.569Z,99951.48
2019-02-05T04:10:59.503Z,99961.36
2019-02-05T04:16:16.796Z,99973.01
2019-02-05T04:21:31.063Z,99971.66
2019-02-05T04:26:42.119Z,99963.53
2019-02-05T04:32:07.903Z,99977.01
2019-02-05T04:37:19.188Z,99981.19
2019-02-05T04:42:39.713Z,99973.80
2019-02-05T04:48:11.825Z,99986.93
2019-02-05T04:53:22.792Z,99986.23
2019-02-05T04:58:30.711Z,99985.92
2019-02-05T05:03:52.790Z,99994.22
2019-02-05T05:09:13.172Z,99980.16
2019-02-05T05:14:14.363Z,99995.80
2019-02-05T05:19:15.650Z,99991.28
2019-02-05T05:24:17.051Z,99999.71
2019-02-05T05:29:18.585Z,100011.44
2019-02-05T05:34:19.876Z,100012.73
2019-02-05T05:39:21.013Z,100010.03
2019-02-05T05:44:22.337Z,100012.55
2019-02-05T05:49:24.222Z,100022.16
2019-02-05T05:54:25.365Z,100031.55
2019-02-05T05:59:26.534Z,100020.86
2019-02-05T06:04:27.801Z,100034.26
2019-02-05T06:09:29.446Z,100040.55
2019-02-05T06:14:31.109Z,100029.84
2019-02-05T06:19:32.416Z,100032.43
2019-02-05T06:24:35.014Z,100040.34
2019-02-05T06:29:36.197Z,100047.48
2019-02-05T06:34:38.122Z,100060.19
2019-02-05T06:39:39.544Z,100060.19
2019-02-05T06:44:40.823Z,100066.23
2019-02-05T06:49:42.618Z,100068.16
2019-02-05T06:54:43.881Z,100085.33
2019-02-05T06:59:45.081Z,100098.16
2019-02-05T07:04:46.336Z,100092.80
2019-02-05T07:09:47.735Z,100090.09
2019-02-05T07:14:49.026Z,100098.13
2019-02-05T07:19:50.707Z,100103.85
2019-02-05T07:24:52.584Z,100112.50
2019-02-05T07:29:53.908Z,100115.41
2019-02-05T07:34:55.677Z,100119.10
2019-02-05T07:39:57.233Z,100126.70
2019-02-05T07:44:58.360Z,100121.70
2019-02-05T07:49:59.566Z,100119.19
2019-02-05T07:55:01.125Z,100122.34
2019-02-05T08:00:06.142Z,100126.20
2019-02-05T08:05:11.413Z,100121.92
2019-02-05T08:10:15.652Z,100122.09
2019-02-05T08:15:22.968Z,100138.16
2019-02-05T08:20:24.529Z,100116.33
2019-02-05T08:25:25.909Z,100137.81
2019-02-05T08:30:36.213Z,100146.20
2019-02-05T08:35:37.549Z,100132.37
2019-02-05T08:40:38.941Z,100115.30
2019-02-05T08:45:40.804Z,100119.66
2019-02-05T08:50:42.109Z,100122.20
2019-02-05T08:55:43.596Z,100133.38
2019-02-05T09:00:46.048Z,100121.73
2019-02-05T09:05:47.490Z,100125.27
2019-02-05T09:10:48.888Z,100130.95
2019-02-05T09:15:50.454Z,100130.59
2019-02-05T09:20:51.707Z,100140.78
2019-02-05T09:25:53.036Z,100146.34
2019-02-05T09:30:54.271Z,100133.98
2019-02-05T09:35:55.447Z,100128.36
2019-02-05T09:40:56.627Z,100147.02
2019-02-05T09:45:57.886Z,100147.02
2019-02-05T09:50:59.452Z,100139.77
2019-02-05T09:56:00.713Z,100136.96
2019-02-05T10:01:02.190Z,100138.09
2019-02-05T10:06:03.610Z,100144.02
2019-02-05T10:11:04.854Z,100155.72
2019-02-05T10:16:06.323Z,100155.72
2019-02-05T10:21:08.049Z,100163.66
2019-02-05T10:26:09.309Z,100145.00
2019-02-05T10:31:10.609Z,100145.00
2019-02-05T10:36:11.996Z,100153.03
2019-02-05T10:41:13.162Z,100155.09
2019-02-05T10:46:14.550Z,100147.12
2019-02-05T10:51:15.901Z,100144.97
2019-02-05T10:56:17.052Z,100125.06
2019-02-05T11:01:18.323Z,100127.91
2019-02-05T11:06:20.240Z,100124.48
2019-02-05T11:11:21.926Z,100124.48
2019-02-05T11:16:23.746Z,100123.65
2019-02-05T11:21:25.131Z,100123.65
2019-02-05T11:26:27.370Z,100111.36
2019-02-05T11:31:29.078Z,100112.54
2019-02-05T11:36:30.521Z,100104.98
2019-02-05T11:41:32.427Z,100108.05
2019-02-05T11:46:33.847Z,100119.66
2019-02-05T11:51:35.327Z,100115.47
2019-02-05T11:56:36.919Z,100118.75
2019-02-05T12:01:39.323Z,100103.62
2019-02-05T12:06:40.721Z,100107.52
2019-02-05T12:11:42.652Z,100103.31
2019-02-05T12:16:44.989Z,100094.95
2019-02-05T12:21:50.279Z,100091.41
2019-02-05T12:26:51.709Z,100092.31
2019-02-05T12:31:53.035Z,100092.31
2019-02-05T12:36:54.447Z,100083.08
2019-02-05T12:41:55.559Z,100077.39
2019-02-05T12:46:56.893Z,100076.44
2019-02-05T12:51:58.389Z,100073.89
2019-02-05T12:56:59.781Z,100058.41
2019-02-05T13:02:01.103Z,100060.77
2019-02-05T13:07:02.671Z,100060.77
2019-02-05T13:12:04.528Z,100053.95
2019-02-05T13:17:05.940Z,100051.25
2019-02-05T13:22:07.371Z,100046.11
2019-02-05T13:27:08.773Z,100045.92
2019-02-05T13:32:10.050Z,100039.92
2019-02-05T13:37:11.325Z,100038.41
2019-02-05T13:42:12.578Z,100032.58
2019-02-05T13:47:18.227Z,100030.52
2019-02-05T13:52:19.360Z,100036.68
2019-02-05T13:57:20.873Z,100036.02
2019-02-05T14:02:22.226Z,100034.30
2019-02-05T14:07:23.700Z,100037.31
2019-02-05T14:12:24.980Z,100042.38
2019-02-05T14:17:26.343Z,100039.83
2019-02-05T14:22:27.554Z,100035.83
2019-02-05T14:27:28.871Z,100035.73
2019-02-05T14:32:30.863Z,100037.98
2019-02-05T14:37:32.168Z,100036.15
2019-02-05T14:42:33.646Z,100039.47
2019-02-05T14:47:35.028Z,100040.20
2019-02-05T14:52:36.400Z,100029.91
2019-02-05T14:57:38.101Z,100033.05
2019-02-05T15:02:39.280Z,100035.92
2019-02-05T15:07:40.593Z,100034.51
2019-02-05T15:12:43.048Z,100034.43
2019-02-05T15:17:44.447Z,100025.98
2019-02-05T15:22:45.907Z,100028.50
2019-02-05T15:27:47.087Z,100036.31
2019-02-05T15:32:50.292Z,100040.32
2019-02-05T15:37:51.439Z,100038.41
2019-02-05T15:42:52.704Z,100037.42
2019-02-05T15:47:56.307Z,100034.27
2019-02-05T15:52:57.630Z,100032.92
2019-02-05T15:57:58.881Z,100032.78
2019-02-05T16:03:00.130Z,100029.38
2019-02-05T16:08:01.693Z,100030.60
2019-02-05T16:13:03.416Z,100026.97
2019-02-05T16:18:04.814Z,100031.88
2019-02-05T16:23:06.517Z,100035.02
2019-02-05T16:28:08.426Z,100032.45
2019-02-05T16:33:10.998Z,100030.20
2019-02-05T16:38:12.489Z,100034.06
2019-02-05T16:43:13.835Z,100045.09
2019-02-05T16:48:15.363Z,100049.19
2019-02-05T16:53:16.582Z,100055.09
2019-02-05T16:58:17.822Z,100058.66
2019-02-05T17:03:19.152Z,100066.28
2019-02-05T17:08:21.512Z,100071.95
2019-02-05T17:13:22.899Z,100065.69
2019-02-05T17:18:24.243Z,100076.48
2019-02-05T17:23:25.541Z,100070.16
2019-02-05T17:28:26.751Z,100074.41
2019-02-05T17:33:28.232Z,100065.38
2019-02-05T17:38:29.613Z,100068.53
2019-02-05T17:43:30.942Z,100066.84
2019-02-05T17:48:32.465Z,100074.63
2019-02-05T17:53:33.998Z,100072.11
2019-02-05T17:58:35.453Z,100078.93
2019-02-05T18:03:37.065Z,100078.06
2019-02-05T18:08:38.505Z,100082.67
2019-02-05T18:13:39.746Z,100082.83
2019-02-05T18:18:41.320Z,100086.55
2019-02-05T18:23:42.838Z,100093.91
2019-02-05T18:28:44.371Z,100097.71
2019-02-05T18:33:45.780Z,100093.55
2019-02-05T18:38:46.991Z,100098.03
2019-02-05T18:43:48.594Z,100099.56
2019-02-05T18:48:50.285Z,100105.98
2019-02-05T18:53:51.957Z,100107.31
2019-02-05T18:58:53.305Z,100106.71
2019-02-05T19:03:55.869Z,100100.00
2019-02-05T19:08:57.804Z,100107.83
2019-02-05T19:13:59.224Z,100105.58
2019-02-05T19:19:01.111Z,100106.66
2019-02-05T19:24:05.344Z,100114.58
2019-02-05T19:29:18.219Z,100114.28
2019-02-05T19:34:10.410Z,100122.84
2019-02-05T19:39:11.862Z,100130.89
2019-02-05T19:44:13.404Z,100127.22
2019-02-05T19:49:22.826Z,100126.84
2019-02-05T19:54:24.264Z,100125.14
2019-02-05T19:59:26.970Z,100130.84
2019-02-05T20:04:28.358Z,100124.78
2019-02-05T20:09:29.891Z,100126.27
2019-02-05T20:14:31.719Z,100124.80
2019-02-05T20:19:33.685Z,100121.02
2019-02-05T20:24:36.248Z,100124.08
2019-02-05T20:29:38.677Z,100116.52
2019-02-05T20:34:40.481Z,100123.97
2019-02-05T20:39:42.961Z,100115.31
2019-02-05T20:44:44.439Z,100114.72
2019-02-05T20:49:46.115Z,100108.94
2019-02-05T20:54:47.541Z,100116.83
2019-02-05T20:59:49.010Z,100115.59
2019-02-05T21:04:50.460Z,100114.26
2019-02-05T21:09:51.736Z,100118.45
2019-02-05T21:14:53.246Z,100110.05
2019-02-05T21:19:57.743Z,100108.92
2019-02-05T21:24:59.235Z,100115.98
2019-02-05T21:30:00.863Z,100131.15
2019-02-05T21:35:03.067Z,100120.50
2019-02-05T21:40:16.874Z,100138.14
2019-02-05T21:45:23.309Z,100145.17
2019-02-05T21:50:25.905Z,100149.97
2019-02-05T21:55:28.090Z,100147.63
2019-02-05T22:00:34.762Z,100145.14
2019-02-05T22:05:36.412Z,100140.69
2019-02-05T22:10:38.306Z,100145.98
2019-02-05T22:15:39.579Z,100149.37
2019-02-05T22:20:41.564Z,100149.76
2019-02-05T22:25:43.460Z,100141.16
2019-02-05T22:30:44.723Z,100136.45
2019-02-05T22:35:46.284Z,100131.66
2019-02-05T22:40:47.621Z,100129.97
2019-02-05T22:45:49.023Z,100133.41
2019-02-05T22:50:50.308Z,100136.50
2019-02-05T22:55:51.624Z,100126.75
2019-02-05T23:00:57.903Z,100119.97
2019-02-05T23:06:24.467Z,100115.31
2019-02-05T23:11:58.261Z,100108.83
2019-02-05T23:17:01.472Z,100113.62
2019-02-05T23:22:02.873Z,100106.92
2019-02-05T23:27:04.140Z,100106.41
2019-02-05T23:32:06.260Z,100091.13
2019-02-05T23:37:07.797Z,100089.90
2019-02-05T23:42:09.176Z,100079.39
2019-02-05T23:47:10.785Z,100087.56
2019-02-05T23:52:12.147Z,100079.36
2019-02-05T23:57:13.412Z,100070.55
